sensor_id;sensor_type;location;lat;lon;timestamp;P1;durP1;ratioP1;P2;durP2;ratioP2
44130;SDS011;29792;48.726;9.248;2023-11-22T00:01:42;14.73;;;7.50;;
44130;SDS011;29792;48.726;9.248;2023-11-22T00:04:07;13.80;;;7.43;;
44130;SDS011;29792;48.726;9.248;2023-11-22T00:06:33;12.30;;;6.97;;
44130;SDS011;29792;48.726;9.248;2023-11-22T00:08:58;13.73;;;7.65;;
44130;SDS011;29792;48.726;9.248;2023-11-22T00:11:24;12.40;;;7.32;;
44130;SDS011;29792;48.726;9.248;2023-11-22T00:13:49;9.40;;;5.72;;
44130;SDS011;29792;48.726;9.248;2023-11-22T00:16:19;7.63;;;5.68;;
44130;SDS011;29792;48.726;9.248;2023-11-22T00:18:45;10.05;;;6.00;;
44130;SDS011;29792;48.726;9.248;2023-11-22T00:21:11;7.75;;;5.75;;
44130;SDS011;29792;48.726;9.248;2023-11-22T00:23:37;7.38;;;3.95;;
44130;SDS011;29792;48.726;9.248;2023-11-22T00:26:02;6.57;;;3.75;;
44130;SDS011;29792;48.726;9.248;2023-11-22T00:28:28;4.88;;;2.55;;
44130;SDS011;29792;48.726;9.248;2023-11-22T00:30:53;5.35;;;2.55;;
44130;SDS011;29792;48.726;9.248;2023-11-22T00:33:19;2.92;;;1.80;;
44130;SDS011;29792;48.726;9.248;2023-11-22T00:35:45;3.42;;;1.98;;
44130;SDS011;29792;48.726;9.248;2023-11-22T00:38:10;2.78;;;2.20;;
44130;SDS011;29792;48.726;9.248;2023-11-22T00:40:35;3.63;;;1.92;;
44130;SDS011;29792;48.726;9.248;2023-11-22T00:43:01;2.80;;;2.33;;
44130;SDS011;29792;48.726;9.248;2023-11-22T00:45:26;3.50;;;3.17;;
44130;SDS011;29792;48.726;9.248;2023-11-22T00:47:51;4.03;;;2.60;;
44130;SDS011;29792;48.726;9.248;2023-11-22T00:50:17;3.60;;;3.05;;
44130;SDS011;29792;48.726;9.248;2023-11-22T00:52:45;4.65;;;3.47;;
44130;SDS011;29792;48.726;9.248;2023-11-22T00:55:11;4.20;;;2.92;;
44130;SDS011;29792;48.726;9.248;2023-11-22T00:57:37;5.43;;;3.38;;
44130;SDS011;29792;48.726;9.248;2023-11-22T01:00:02;3.70;;;2.72;;
44130;SDS011;29792;48.726;9.248;2023-11-22T01:02:29;4.32;;;3.35;;
44130;SDS011;29792;48.726;9.248;2023-11-22T01:04:54;3.42;;;2.80;;
44130;SDS011;29792;48.726;9.248;2023-11-22T01:07:20;3.72;;;3.22;;
44130;SDS011;29792;48.726;9.248;2023-11-22T01:09:45;3.90;;;3.28;;
44130;SDS011;29792;48.726;9.248;2023-11-22T01:12:10;3.75;;;3.42;;
44130;SDS011;29792;48.726;9.248;2023-11-22T01:14:37;5.00;;;3.53;;
44130;SDS011;29792;48.726;9.248;2023-11-22T01:17:02;5.68;;;3.72;;
44130;SDS011;29792;48.726;9.248;2023-11-22T01:19:28;4.95;;;3.97;;
44130;SDS011;29792;48.726;9.248;2023-11-22T01:21:53;5.35;;;3.78;;
44130;SDS011;29792;48.726;9.248;2023-11-22T01:24:19;5.40;;;3.90;;
44130;SDS011;29792;48.726;9.248;2023-11-22T01:26:44;4.95;;;3.60;;
44130;SDS011;29792;48.726;9.248;2023-11-22T01:29:09;5.13;;;3.65;;
44130;SDS011;29792;48.726;9.248;2023-11-22T01:31:36;5.78;;;4.07;;
44130;SDS011;29792;48.726;9.248;2023-11-22T01:34:02;5.10;;;3.60;;
44130;SDS011;29792;48.726;9.248;2023-11-22T01:36:29;6.13;;;4.25;;
44130;SDS011;29792;48.726;9.248;2023-11-22T01:38:54;5.07;;;3.92;;
44130;SDS011;29792;48.726;9.248;2023-11-22T01:41:20;5.95;;;3.90;;
44130;SDS011;29792;48.726;9.248;2023-11-22T01:43:46;5.57;;;4.32;;
44130;SDS011;29792;48.726;9.248;2023-11-22T01:46:17;5.28;;;4.43;;
44130;SDS011;29792;48.726;9.248;2023-11-22T01:48:48;8.15;;;5.32;;
44130;SDS011;29792;48.726;9.248;2023-11-22T01:51:13;6.82;;;4.07;;
44130;SDS011;29792;48.726;9.248;2023-11-22T01:53:39;5.07;;;4.22;;
44130;SDS011;29792;48.726;9.248;2023-11-22T01:56:04;6.20;;;4.28;;
44130;SDS011;29792;48.726;9.248;2023-11-22T01:58:30;5.72;;;4.05;;
44130;SDS011;29792;48.726;9.248;2023-11-22T02:00:55;6.28;;;5.13;;
44130;SDS011;29792;48.726;9.248;2023-11-22T02:03:23;5.68;;;4.22;;
44130;SDS011;29792;48.726;9.248;2023-11-22T02:05:48;6.93;;;4.20;;
44130;SDS011;29792;48.726;9.248;2023-11-22T02:08:15;5.35;;;4.28;;
44130;SDS011;29792;48.726;9.248;2023-11-22T02:10:40;5.55;;;4.60;;
44130;SDS011;29792;48.726;9.248;2023-11-22T02:13:07;4.63;;;3.83;;
44130;SDS011;29792;48.726;9.248;2023-11-22T02:15:36;6.38;;;4.10;;
44130;SDS011;29792;48.726;9.248;2023-11-22T02:18:02;4.88;;;3.83;;
44130;SDS011;29792;48.726;9.248;2023-11-22T02:20:29;8.38;;;5.15;;
44130;SDS011;29792;48.726;9.248;2023-11-22T02:22:55;5.40;;;3.78;;
44130;SDS011;29792;48.726;9.248;2023-11-22T02:25:20;4.72;;;3.33;;
44130;SDS011;29792;48.726;9.248;2023-11-22T02:27:46;6.03;;;4.00;;
44130;SDS011;29792;48.726;9.248;2023-11-22T02:30:11;4.85;;;3.90;;
44130;SDS011;29792;48.726;9.248;2023-11-22T02:32:37;5.78;;;3.58;;
44130;SDS011;29792;48.726;9.248;2023-11-22T02:35:02;4.30;;;3.53;;
44130;SDS011;29792;48.726;9.248;2023-11-22T02:37:32;4.78;;;4.00;;
44130;SDS011;29792;48.726;9.248;2023-11-22T02:40:00;9.07;;;5.25;;
44130;SDS011;29792;48.726;9.248;2023-11-22T02:42:30;8.77;;;3.85;;
44130;SDS011;29792;48.726;9.248;2023-11-22T02:44:55;5.63;;;3.55;;
44130;SDS011;29792;48.726;9.248;2023-11-22T02:47:22;4.15;;;3.53;;
44130;SDS011;29792;48.726;9.248;2023-11-22T02:49:47;8.20;;;3.63;;
44130;SDS011;29792;48.726;9.248;2023-11-22T02:52:13;3.80;;;2.75;;
44130;SDS011;29792;48.726;9.248;2023-11-22T02:54:41;5.32;;;3.97;;
44130;SDS011;29792;48.726;9.248;2023-11-22T02:57:10;16.63;;;4.22;;
44130;SDS011;29792;48.726;9.248;2023-11-22T02:59:36;4.93;;;3.33;;
44130;SDS011;29792;48.726;9.248;2023-11-22T03:02:01;4.85;;;3.95;;
44130;SDS011;29792;48.726;9.248;2023-11-22T03:04:27;5.30;;;4.57;;
44130;SDS011;29792;48.726;9.248;2023-11-22T03:06:53;4.68;;;3.42;;
44130;SDS011;29792;48.726;9.248;2023-11-22T03:09:18;5.85;;;3.30;;
44130;SDS011;29792;48.726;9.248;2023-11-22T03:11:43;7.00;;;4.13;;
44130;SDS011;29792;48.726;9.248;2023-11-22T03:14:08;6.85;;;3.72;;
44130;SDS011;29792;48.726;9.248;2023-11-22T03:16:33;6.28;;;3.67;;
44130;SDS011;29792;48.726;9.248;2023-11-22T03:18:59;5.63;;;3.90;;
44130;SDS011;29792;48.726;9.248;2023-11-22T03:21:24;6.07;;;2.92;;
44130;SDS011;29792;48.726;9.248;2023-11-22T03:23:52;5.07;;;3.85;;
44130;SDS011;29792;48.726;9.248;2023-11-22T03:26:18;5.53;;;3.50;;
44130;SDS011;29792;48.726;9.248;2023-11-22T03:28:44;3.90;;;3.30;;
44130;SDS011;29792;48.726;9.248;2023-11-22T03:31:09;6.28;;;4.40;;
44130;SDS011;29792;48.726;9.248;2023-11-22T03:33:35;4.82;;;3.67;;
44130;SDS011;29792;48.726;9.248;2023-11-22T03:36:00;5.97;;;3.63;;
44130;SDS011;29792;48.726;9.248;2023-11-22T03:38:25;6.93;;;3.05;;
44130;SDS011;29792;48.726;9.248;2023-11-22T03:40:50;5.25;;;3.33;;
44130;SDS011;29792;48.726;9.248;2023-11-22T03:43:16;6.35;;;3.40;;
44130;SDS011;29792;48.726;9.248;2023-11-22T03:45:41;7.00;;;5.18;;
44130;SDS011;29792;48.726;9.248;2023-11-22T03:48:06;6.20;;;3.70;;
44130;SDS011;29792;48.726;9.248;2023-11-22T03:50:31;5.15;;;4.00;;
44130;SDS011;29792;48.726;9.248;2023-11-22T03:52:57;5.25;;;4.05;;
44130;SDS011;29792;48.726;9.248;2023-11-22T03:55:22;5.80;;;3.90;;
44130;SDS011;29792;48.726;9.248;2023-11-22T03:57:48;5.28;;;3.92;;
44130;SDS011;29792;48.726;9.248;2023-11-22T04:00:13;5.57;;;4.20;;
44130;SDS011;29792;48.726;9.248;2023-11-22T04:02:39;5.53;;;3.50;;
44130;SDS011;29792;48.726;9.248;2023-11-22T04:05:06;4.93;;;3.55;;
44130;SDS011;29792;48.726;9.248;2023-11-22T04:07:32;6.25;;;3.38;;
44130;SDS011;29792;48.726;9.248;2023-11-22T04:09:57;5.18;;;3.20;;
44130;SDS011;29792;48.726;9.248;2023-11-22T04:12:22;8.80;;;4.40;;
44130;SDS011;29792;48.726;9.248;2023-11-22T04:14:48;7.05;;;4.25;;
44130;SDS011;29792;48.726;9.248;2023-11-22T04:17:14;4.20;;;3.40;;
44130;SDS011;29792;48.726;9.248;2023-11-22T04:19:40;3.95;;;3.53;;
44130;SDS011;29792;48.726;9.248;2023-11-22T04:22:05;5.07;;;4.28;;
44130;SDS011;29792;48.726;9.248;2023-11-22T04:24:30;6.65;;;4.00;;
44130;SDS011;29792;48.726;9.248;2023-11-22T04:26:56;5.35;;;3.70;;
44130;SDS011;29792;48.726;9.248;2023-11-22T04:29:22;4.97;;;3.38;;
44130;SDS011;29792;48.726;9.248;2023-11-22T04:31:47;5.85;;;4.32;;
44130;SDS011;29792;48.726;9.248;2023-11-22T04:34:12;5.97;;;4.05;;
44130;SDS011;29792;48.726;9.248;2023-11-22T04:36:37;4.78;;;3.75;;
44130;SDS011;29792;48.726;9.248;2023-11-22T04:39:04;6.03;;;4.32;;
44130;SDS011;29792;48.726;9.248;2023-11-22T04:41:29;5.65;;;4.35;;
44130;SDS011;29792;48.726;9.248;2023-11-22T04:43:54;5.15;;;3.97;;
44130;SDS011;29792;48.726;9.248;2023-11-22T04:46:20;6.90;;;3.88;;
44130;SDS011;29792;48.726;9.248;2023-11-22T04:48:45;6.47;;;3.92;;
44130;SDS011;29792;48.726;9.248;2023-11-22T04:51:12;6.13;;;4.40;;
44130;SDS011;29792;48.726;9.248;2023-11-22T04:53:37;5.53;;;4.00;;
44130;SDS011;29792;48.726;9.248;2023-11-22T04:56:03;5.72;;;3.53;;
44130;SDS011;29792;48.726;9.248;2023-11-22T04:58:31;6.80;;;4.47;;
44130;SDS011;29792;48.726;9.248;2023-11-22T05:00:58;6.95;;;4.40;;
44130;SDS011;29792;48.726;9.248;2023-11-22T05:03:23;4.45;;;3.75;;
44130;SDS011;29792;48.726;9.248;2023-11-22T05:05:49;6.05;;;4.50;;
44130;SDS011;29792;48.726;9.248;2023-11-22T05:08:14;5.47;;;4.25;;
44130;SDS011;29792;48.726;9.248;2023-11-22T05:10:39;7.22;;;4.82;;
44130;SDS011;29792;48.726;9.248;2023-11-22T05:13:05;5.88;;;4.15;;
44130;SDS011;29792;48.726;9.248;2023-11-22T05:15:30;6.35;;;4.32;;
44130;SDS011;29792;48.726;9.248;2023-11-22T05:17:56;8.80;;;4.63;;
44130;SDS011;29792;48.726;9.248;2023-11-22T05:20:21;5.55;;;3.85;;
44130;SDS011;29792;48.726;9.248;2023-11-22T05:22:46;5.78;;;3.80;;
44130;SDS011;29792;48.726;9.248;2023-11-22T05:25:12;7.20;;;4.32;;
44130;SDS011;29792;48.726;9.248;2023-11-22T05:27:37;4.55;;;3.45;;
44130;SDS011;29792;48.726;9.248;2023-11-22T05:30:02;6.85;;;4.07;;
44130;SDS011;29792;48.726;9.248;2023-11-22T05:32:29;6.13;;;4.20;;
44130;SDS011;29792;48.726;9.248;2023-11-22T05:34:56;6.55;;;3.83;;
44130;SDS011;29792;48.726;9.248;2023-11-22T05:37:21;7.47;;;4.18;;
44130;SDS011;29792;48.726;9.248;2023-11-22T05:39:47;5.47;;;3.30;;
44130;SDS011;29792;48.726;9.248;2023-11-22T05:42:12;4.63;;;3.35;;
44130;SDS011;29792;48.726;9.248;2023-11-22T05:44:37;5.00;;;3.80;;
44130;SDS011;29792;48.726;9.248;2023-11-22T05:47:02;5.28;;;2.95;;
44130;SDS011;29792;48.726;9.248;2023-11-22T05:49:28;4.68;;;3.03;;
44130;SDS011;29792;48.726;9.248;2023-11-22T05:51:53;5.93;;;4.25;;
44130;SDS011;29792;48.726;9.248;2023-11-22T05:54:18;6.60;;;3.53;;
44130;SDS011;29792;48.726;9.248;2023-11-22T05:56:44;4.93;;;3.83;;
44130;SDS011;29792;48.726;9.248;2023-11-22T05:59:09;5.15;;;3.92;;
44130;SDS011;29792;48.726;9.248;2023-11-22T06:01:34;7.70;;;5.53;;
44130;SDS011;29792;48.726;9.248;2023-11-22T06:03:59;5.40;;;4.10;;
44130;SDS011;29792;48.726;9.248;2023-11-22T06:06:25;10.10;;;6.90;;
44130;SDS011;29792;48.726;9.248;2023-11-22T06:08:50;6.95;;;4.25;;
44130;SDS011;29792;48.726;9.248;2023-11-22T06:11:15;6.15;;;4.07;;
44130;SDS011;29792;48.726;9.248;2023-11-22T06:13:41;8.27;;;5.18;;
44130;SDS011;29792;48.726;9.248;2023-11-22T06:16:10;4.28;;;3.33;;
44130;SDS011;29792;48.726;9.248;2023-11-22T06:18:36;5.57;;;4.15;;
44130;SDS011;29792;48.726;9.248;2023-11-22T06:21:06;6.10;;;5.07;;
44130;SDS011;29792;48.726;9.248;2023-11-22T06:23:32;9.18;;;3.90;;
44130;SDS011;29792;48.726;9.248;2023-11-22T06:25:57;7.00;;;4.07;;
44130;SDS011;29792;48.726;9.248;2023-11-22T06:28:23;6.68;;;4.63;;
44130;SDS011;29792;48.726;9.248;2023-11-22T06:30:48;5.78;;;3.63;;
44130;SDS011;29792;48.726;9.248;2023-11-22T06:33:13;5.20;;;3.95;;
44130;SDS011;29792;48.726;9.248;2023-11-22T06:35:38;6.22;;;3.92;;
44130;SDS011;29792;48.726;9.248;2023-11-22T06:38:04;4.97;;;4.35;;
44130;SDS011;29792;48.726;9.248;2023-11-22T06:40:29;8.25;;;5.18;;
44130;SDS011;29792;48.726;9.248;2023-11-22T06:42:57;7.65;;;4.03;;
44130;SDS011;29792;48.726;9.248;2023-11-22T06:45:22;6.25;;;4.90;;
44130;SDS011;29792;48.726;9.248;2023-11-22T06:47:48;7.55;;;4.80;;
44130;SDS011;29792;48.726;9.248;2023-11-22T06:50:15;6.93;;;5.40;;
44130;SDS011;29792;48.726;9.248;2023-11-22T06:52:41;6.65;;;4.68;;
44130;SDS011;29792;48.726;9.248;2023-11-22T06:55:07;6.88;;;4.35;;
44130;SDS011;29792;48.726;9.248;2023-11-22T06:57:33;6.18;;;4.00;;
44130;SDS011;29792;48.726;9.248;2023-11-22T07:00:03;5.15;;;3.80;;
44130;SDS011;29792;48.726;9.248;2023-11-22T07:02:35;5.18;;;4.20;;
44130;SDS011;29792;48.726;9.248;2023-11-22T07:05:01;6.00;;;3.63;;
44130;SDS011;29792;48.726;9.248;2023-11-22T07:07:36;5.55;;;3.60;;
44130;SDS011;29792;48.726;9.248;2023-11-22T07:10:03;4.15;;;2.67;;
44130;SDS011;29792;48.726;9.248;2023-11-22T07:12:30;5.60;;;4.53;;
44130;SDS011;29792;48.726;9.248;2023-11-22T07:14:55;4.28;;;3.13;;
44130;SDS011;29792;48.726;9.248;2023-11-22T07:17:20;5.10;;;3.28;;
44130;SDS011;29792;48.726;9.248;2023-11-22T07:19:47;8.02;;;3.40;;
44130;SDS011;29792;48.726;9.248;2023-11-22T07:22:13;4.20;;;3.47;;
44130;SDS011;29792;48.726;9.248;2023-11-22T07:24:42;5.68;;;3.28;;
44130;SDS011;29792;48.726;9.248;2023-11-22T07:27:12;4.63;;;2.85;;
44130;SDS011;29792;48.726;9.248;2023-11-22T07:29:41;4.30;;;3.72;;
44130;SDS011;29792;48.726;9.248;2023-11-22T07:32:07;7.22;;;4.93;;
44130;SDS011;29792;48.726;9.248;2023-11-22T07:34:36;5.80;;;4.13;;
44130;SDS011;29792;48.726;9.248;2023-11-22T07:37:02;3.95;;;3.38;;
44130;SDS011;29792;48.726;9.248;2023-11-22T07:39:28;4.43;;;3.67;;
44130;SDS011;29792;48.726;9.248;2023-11-22T07:41:54;4.72;;;3.50;;
44130;SDS011;29792;48.726;9.248;2023-11-22T07:44:23;3.28;;;2.60;;
44130;SDS011;29792;48.726;9.248;2023-11-22T07:46:51;3.85;;;2.78;;
44130;SDS011;29792;48.726;9.248;2023-11-22T07:49:17;5.70;;;3.78;;
44130;SDS011;29792;48.726;9.248;2023-11-22T07:51:44;5.03;;;3.97;;
44130;SDS011;29792;48.726;9.248;2023-11-22T07:54:10;4.03;;;2.92;;
44130;SDS011;29792;48.726;9.248;2023-11-22T07:56:40;5.38;;;3.00;;
44130;SDS011;29792;48.726;9.248;2023-11-22T07:59:08;3.95;;;3.05;;
44130;SDS011;29792;48.726;9.248;2023-11-22T08:01:33;5.45;;;2.47;;
44130;SDS011;29792;48.726;9.248;2023-11-22T08:03:59;7.18;;;3.20;;
44130;SDS011;29792;48.726;9.248;2023-11-22T08:06:24;9.35;;;4.78;;
44130;SDS011;29792;48.726;9.248;2023-11-22T08:08:51;7.50;;;3.38;;
44130;SDS011;29792;48.726;9.248;2023-11-22T08:11:18;4.30;;;2.92;;
44130;SDS011;29792;48.726;9.248;2023-11-22T08:13:44;4.78;;;3.10;;
44130;SDS011;29792;48.726;9.248;2023-11-22T08:16:10;6.43;;;3.30;;
44130;SDS011;29792;48.726;9.248;2023-11-22T08:18:37;5.25;;;3.03;;
44130;SDS011;29792;48.726;9.248;2023-11-22T08:21:04;7.43;;;3.75;;
44130;SDS011;29792;48.726;9.248;2023-11-22T08:23:29;6.05;;;3.40;;
44130;SDS011;29792;48.726;9.248;2023-11-22T08:25:56;3.85;;;2.67;;
44130;SDS011;29792;48.726;9.248;2023-11-22T08:28:22;4.28;;;2.65;;
44130;SDS011;29792;48.726;9.248;2023-11-22T08:30:47;5.15;;;3.92;;
44130;SDS011;29792;48.726;9.248;2023-11-22T08:33:12;5.05;;;2.72;;
44130;SDS011;29792;48.726;9.248;2023-11-22T08:35:38;3.55;;;3.08;;
44130;SDS011;29792;48.726;9.248;2023-11-22T08:38:04;4.82;;;2.92;;
44130;SDS011;29792;48.726;9.248;2023-11-22T08:40:33;5.55;;;3.38;;
44130;SDS011;29792;48.726;9.248;2023-11-22T08:43:01;4.50;;;3.67;;
44130;SDS011;29792;48.726;9.248;2023-11-22T08:45:27;5.05;;;3.63;;
44130;SDS011;29792;48.726;9.248;2023-11-22T08:47:54;6.20;;;4.07;;
44130;SDS011;29792;48.726;9.248;2023-11-22T08:50:19;4.68;;;3.33;;
44130;SDS011;29792;48.726;9.248;2023-11-22T08:52:44;7.20;;;3.80;;
44130;SDS011;29792;48.726;9.248;2023-11-22T08:55:10;3.70;;;2.67;;
44130;SDS011;29792;48.726;9.248;2023-11-22T08:57:36;4.25;;;3.08;;
44130;SDS011;29792;48.726;9.248;2023-11-22T09:00:02;6.32;;;2.90;;
44130;SDS011;29792;48.726;9.248;2023-11-22T09:02:32;5.13;;;2.70;;
44130;SDS011;29792;48.726;9.248;2023-11-22T09:04:58;4.25;;;2.92;;
44130;SDS011;29792;48.726;9.248;2023-11-22T09:07:23;5.97;;;3.83;;
44130;SDS011;29792;48.726;9.248;2023-11-22T09:09:49;3.92;;;3.10;;
44130;SDS011;29792;48.726;9.248;2023-11-22T09:12:16;6.20;;;3.80;;
44130;SDS011;29792;48.726;9.248;2023-11-22T09:14:44;10.50;;;3.80;;
44130;SDS011;29792;48.726;9.248;2023-11-22T09:17:10;6.45;;;4.10;;
44130;SDS011;29792;48.726;9.248;2023-11-22T09:19:35;5.88;;;4.00;;
44130;SDS011;29792;48.726;9.248;2023-11-22T09:22:01;8.50;;;4.82;;
44130;SDS011;29792;48.726;9.248;2023-11-22T09:24:26;7.30;;;4.50;;
44130;SDS011;29792;48.726;9.248;2023-11-22T09:26:52;5.97;;;4.22;;
44130;SDS011;29792;48.726;9.248;2023-11-22T09:29:17;4.85;;;4.15;;
44130;SDS011;29792;48.726;9.248;2023-11-22T09:31:43;5.35;;;4.40;;
44130;SDS011;29792;48.726;9.248;2023-11-22T09:34:11;5.15;;;3.33;;
44130;SDS011;29792;48.726;9.248;2023-11-22T09:36:36;7.60;;;4.30;;
44130;SDS011;29792;48.726;9.248;2023-11-22T09:39:02;6.25;;;3.22;;
44130;SDS011;29792;48.726;9.248;2023-11-22T09:41:28;7.30;;;3.47;;
44130;SDS011;29792;48.726;9.248;2023-11-22T09:43:54;6.95;;;4.43;;
44130;SDS011;29792;48.726;9.248;2023-11-22T09:46:20;6.22;;;3.83;;
44130;SDS011;29792;48.726;9.248;2023-11-22T09:48:48;8.85;;;4.18;;
44130;SDS011;29792;48.726;9.248;2023-11-22T09:53:57;6.13;;;4.20;;
44130;SDS011;29792;48.726;9.248;2023-11-22T09:56:32;5.93;;;3.88;;
44130;SDS011;29792;48.726;9.248;2023-11-22T09:58:59;7.50;;;4.05;;
44130;SDS011;29792;48.726;9.248;2023-11-22T10:01:25;11.63;;;8.00;;
44130;SDS011;29792;48.726;9.248;2023-11-22T10:03:53;5.80;;;3.53;;
44130;SDS011;29792;48.726;9.248;2023-11-22T10:06:19;4.75;;;3.72;;
44130;SDS011;29792;48.726;9.248;2023-11-22T10:08:45;3.88;;;3.10;;
44130;SDS011;29792;48.726;9.248;2023-11-22T10:11:14;7.57;;;3.55;;
44130;SDS011;29792;48.726;9.248;2023-11-22T10:13:43;4.80;;;3.40;;
44130;SDS011;29792;48.726;9.248;2023-11-22T10:16:11;6.82;;;4.13;;
44130;SDS011;29792;48.726;9.248;2023-11-22T10:18:39;6.78;;;3.85;;
44130;SDS011;29792;48.726;9.248;2023-11-22T10:21:18;8.07;;;4.63;;
44130;SDS011;29792;48.726;9.248;2023-11-22T10:23:45;7.18;;;4.07;;
44130;SDS011;29792;48.726;9.248;2023-11-22T10:26:12;6.32;;;4.00;;
44130;SDS011;29792;48.726;9.248;2023-11-22T10:28:40;5.88;;;3.33;;
44130;SDS011;29792;48.726;9.248;2023-11-22T10:31:06;6.55;;;4.15;;
44130;SDS011;29792;48.726;9.248;2023-11-22T10:33:32;9.48;;;4.35;;
44130;SDS011;29792;48.726;9.248;2023-11-22T10:35:58;5.43;;;3.25;;
44130;SDS011;29792;48.726;9.248;2023-11-22T10:38:23;5.50;;;4.05;;
44130;SDS011;29792;48.726;9.248;2023-11-22T10:40:48;6.90;;;4.90;;
44130;SDS011;29792;48.726;9.248;2023-11-22T10:43:17;6.68;;;4.43;;
44130;SDS011;29792;48.726;9.248;2023-11-22T10:45:43;6.63;;;4.68;;
44130;SDS011;29792;48.726;9.248;2023-11-22T10:48:13;6.28;;;3.60;;
44130;SDS011;29792;48.726;9.248;2023-11-22T10:50:41;6.45;;;4.60;;
44130;SDS011;29792;48.726;9.248;2023-11-22T10:53:07;7.50;;;4.13;;
44130;SDS011;29792;48.726;9.248;2023-11-22T10:55:38;6.05;;;4.88;;
44130;SDS011;29792;48.726;9.248;2023-11-22T10:58:09;4.90;;;3.97;;
44130;SDS011;29792;48.726;9.248;2023-11-22T11:00:36;6.38;;;4.40;;
44130;SDS011;29792;48.726;9.248;2023-11-22T11:03:07;6.13;;;5.25;;
44130;SDS011;29792;48.726;9.248;2023-11-22T11:05:37;8.88;;;5.28;;
44130;SDS011;29792;48.726;9.248;2023-11-22T11:08:12;6.70;;;4.35;;
44130;SDS011;29792;48.726;9.248;2023-11-22T11:10:41;7.47;;;4.85;;
44130;SDS011;29792;48.726;9.248;2023-11-22T11:13:08;5.95;;;4.30;;
44130;SDS011;29792;48.726;9.248;2023-11-22T11:15:40;9.32;;;5.63;;
44130;SDS011;29792;48.726;9.248;2023-11-22T11:18:12;9.00;;;5.80;;
44130;SDS011;29792;48.726;9.248;2023-11-22T11:20:50;6.65;;;4.68;;
44130;SDS011;29792;48.726;9.248;2023-11-22T11:23:22;7.90;;;5.22;;
44130;SDS011;29792;48.726;9.248;2023-11-22T11:25:50;10.98;;;6.93;;
44130;SDS011;29792;48.726;9.248;2023-11-22T11:28:17;8.07;;;5.00;;
44130;SDS011;29792;48.726;9.248;2023-11-22T11:30:46;7.38;;;4.90;;
44130;SDS011;29792;48.726;9.248;2023-11-22T11:33:19;11.38;;;5.88;;
44130;SDS011;29792;48.726;9.248;2023-11-22T11:35:52;5.30;;;4.75;;
44130;SDS011;29792;48.726;9.248;2023-11-22T11:38:21;7.53;;;4.72;;
44130;SDS011;29792;48.726;9.248;2023-11-22T11:40:46;6.90;;;5.57;;
44130;SDS011;29792;48.726;9.248;2023-11-22T11:43:13;6.50;;;5.35;;
44130;SDS011;29792;48.726;9.248;2023-11-22T11:45:39;10.80;;;5.35;;
44130;SDS011;29792;48.726;9.248;2023-11-22T11:48:10;6.13;;;4.50;;
44130;SDS011;29792;48.726;9.248;2023-11-22T11:50:40;5.45;;;4.32;;
44130;SDS011;29792;48.726;9.248;2023-11-22T11:53:06;7.93;;;6.00;;
44130;SDS011;29792;48.726;9.248;2023-11-22T11:55:31;9.35;;;5.93;;
44130;SDS011;29792;48.726;9.248;2023-11-22T11:57:56;6.22;;;4.50;;
44130;SDS011;29792;48.726;9.248;2023-11-22T12:00:25;9.82;;;6.95;;
44130;SDS011;29792;48.726;9.248;2023-11-22T12:02:50;6.68;;;5.55;;
44130;SDS011;29792;48.726;9.248;2023-11-22T12:05:18;5.53;;;4.70;;
44130;SDS011;29792;48.726;9.248;2023-11-22T12:07:45;8.90;;;5.28;;
44130;SDS011;29792;48.726;9.248;2023-11-22T12:10:10;10.23;;;5.40;;
44130;SDS011;29792;48.726;9.248;2023-11-22T12:12:36;7.40;;;4.90;;
44130;SDS011;29792;48.726;9.248;2023-11-22T12:15:01;6.70;;;4.68;;
44130;SDS011;29792;48.726;9.248;2023-11-22T12:17:27;9.25;;;6.07;;
44130;SDS011;29792;48.726;9.248;2023-11-22T12:19:53;5.85;;;4.63;;
44130;SDS011;29792;48.726;9.248;2023-11-22T12:22:33;5.57;;;4.22;;
44130;SDS011;29792;48.726;9.248;2023-11-22T12:24:58;6.50;;;4.95;;
44130;SDS011;29792;48.726;9.248;2023-11-22T12:27:24;7.75;;;4.90;;
44130;SDS011;29792;48.726;9.248;2023-11-22T12:29:49;7.75;;;5.30;;
44130;SDS011;29792;48.726;9.248;2023-11-22T12:32:15;6.55;;;5.18;;
44130;SDS011;29792;48.726;9.248;2023-11-22T12:34:42;6.70;;;5.00;;
44130;SDS011;29792;48.726;9.248;2023-11-22T12:37:08;6.97;;;5.35;;
44130;SDS011;29792;48.726;9.248;2023-11-22T12:39:35;7.25;;;4.90;;
44130;SDS011;29792;48.726;9.248;2023-11-22T12:42:01;6.70;;;5.15;;
44130;SDS011;29792;48.726;9.248;2023-11-22T12:44:28;7.13;;;5.28;;
44130;SDS011;29792;48.726;9.248;2023-11-22T12:46:53;5.50;;;4.60;;
44130;SDS011;29792;48.726;9.248;2023-11-22T12:49:24;8.55;;;5.00;;
44130;SDS011;29792;48.726;9.248;2023-11-22T12:51:54;7.53;;;5.00;;
44130;SDS011;29792;48.726;9.248;2023-11-22T12:54:21;8.30;;;5.32;;
44130;SDS011;29792;48.726;9.248;2023-11-22T12:56:51;7.82;;;5.30;;
44130;SDS011;29792;48.726;9.248;2023-11-22T12:59:23;13.05;;;6.25;;
44130;SDS011;29792;48.726;9.248;2023-11-22T13:01:48;8.10;;;5.38;;
44130;SDS011;29792;48.726;9.248;2023-11-22T13:04:14;7.28;;;5.00;;
44130;SDS011;29792;48.726;9.248;2023-11-22T13:06:40;5.80;;;5.07;;
44130;SDS011;29792;48.726;9.248;2023-11-22T13:09:06;8.80;;;6.45;;
44130;SDS011;29792;48.726;9.248;2023-11-22T13:11:31;8.85;;;5.70;;
44130;SDS011;29792;48.726;9.248;2023-11-22T13:13:57;6.97;;;5.22;;
44130;SDS011;29792;48.726;9.248;2023-11-22T13:16:23;10.93;;;7.53;;
44130;SDS011;29792;48.726;9.248;2023-11-22T13:18:48;8.18;;;5.28;;
44130;SDS011;29792;48.726;9.248;2023-11-22T13:21:13;10.38;;;5.53;;
44130;SDS011;29792;48.726;9.248;2023-11-22T13:23:39;9.18;;;6.07;;
44130;SDS011;29792;48.726;9.248;2023-11-22T13:26:04;5.80;;;4.88;;
44130;SDS011;29792;48.726;9.248;2023-11-22T13:28:30;9.20;;;6.55;;
44130;SDS011;29792;48.726;9.248;2023-11-22T13:30:56;6.38;;;5.78;;
44130;SDS011;29792;48.726;9.248;2023-11-22T13:33:21;7.45;;;4.60;;
44130;SDS011;29792;48.726;9.248;2023-11-22T13:35:46;11.07;;;5.80;;
44130;SDS011;29792;48.726;9.248;2023-11-22T13:38:12;7.85;;;5.68;;
44130;SDS011;29792;48.726;9.248;2023-11-22T13:40:38;6.45;;;5.35;;
44130;SDS011;29792;48.726;9.248;2023-11-22T13:43:10;6.38;;;5.03;;
44130;SDS011;29792;48.726;9.248;2023-11-22T13:45:37;7.72;;;5.57;;
44130;SDS011;29792;48.726;9.248;2023-11-22T13:48:06;8.18;;;4.90;;
44130;SDS011;29792;48.726;9.248;2023-11-22T13:50:34;4.82;;;4.18;;
44130;SDS011;29792;48.726;9.248;2023-11-22T13:53:00;6.95;;;5.15;;
44130;SDS011;29792;48.726;9.248;2023-11-22T13:55:25;6.35;;;4.85;;
44130;SDS011;29792;48.726;9.248;2023-11-22T13:57:54;6.93;;;5.53;;
44130;SDS011;29792;48.726;9.248;2023-11-22T14:00:23;7.35;;;4.80;;
44130;SDS011;29792;48.726;9.248;2023-11-22T14:02:56;12.07;;;6.45;;
44130;SDS011;29792;48.726;9.248;2023-11-22T14:05:30;12.07;;;7.90;;
44130;SDS011;29792;48.726;9.248;2023-11-22T14:07:57;9.27;;;6.55;;
44130;SDS011;29792;48.726;9.248;2023-11-22T14:10:23;6.43;;;4.78;;
44130;SDS011;29792;48.726;9.248;2023-11-22T14:12:49;7.35;;;5.78;;
44130;SDS011;29792;48.726;9.248;2023-11-22T14:15:15;8.23;;;5.68;;
44130;SDS011;29792;48.726;9.248;2023-11-22T14:17:40;9.15;;;7.28;;
44130;SDS011;29792;48.726;9.248;2023-11-22T14:22:34;12.48;;;7.20;;
44130;SDS011;29792;48.726;9.248;2023-11-22T14:25:00;9.02;;;7.03;;
44130;SDS011;29792;48.726;9.248;2023-11-22T14:27:25;7.00;;;5.63;;
44130;SDS011;29792;48.726;9.248;2023-11-22T14:29:52;8.05;;;5.72;;
44130;SDS011;29792;48.726;9.248;2023-11-22T14:32:19;6.82;;;5.35;;
44130;SDS011;29792;48.726;9.248;2023-11-22T14:34:45;7.72;;;5.68;;
44130;SDS011;29792;48.726;9.248;2023-11-22T14:37:11;7.80;;;5.15;;
44130;SDS011;29792;48.726;9.248;2023-11-22T14:39:37;6.55;;;5.07;;
44130;SDS011;29792;48.726;9.248;2023-11-22T14:42:03;9.27;;;6.10;;
44130;SDS011;29792;48.726;9.248;2023-11-22T14:44:30;9.52;;;6.63;;
44130;SDS011;29792;48.726;9.248;2023-11-22T14:46:56;7.75;;;5.13;;
44130;SDS011;29792;48.726;9.248;2023-11-22T14:49:23;6.70;;;4.70;;